Chattanooga Airport (CHA)

 

Airport Diagram
Current Weather/Forecast (MVFR Conditions)
METAR KCHA 260153Z 00000KT 8SM FEW010 OVC019 22/19 A3002 RMK AO2 RAB28E40 SLP161 P0000 T02170189
TAF KCHA 252320Z 2600/2624 00000KT P6SM SCT027 OVC040 FM260800 00000KT 2SM BR BKN025 TEMPO 2609/2613 1/2SM FG BKN004 FM261400 00000KT P6SM BKN015 FM262300 00000KT P6SM SCT120

All Charts
General
Chart Name Download
AIRPORT DIAGRAM
TAKEOFF MINIMUMS
ALTERNATE MINIMUMS

Departures
Chart Name Download
CHATTANOOGA SIX

Approaches
Chart Name Download
ILS OR LOC RWY 02
ILS OR LOC RWY 20
ILS RWY 20 (CAT II)
RNAV (GPS) RWY 02
RNAV (GPS) RWY 15
RNAV (GPS) RWY 20
RNAV (GPS) RWY 33
VOR RWY 33


Inbound Traffic (Arrivals)

No inbound traffic.


Outbound Traffic (Departures)

No outbound traffic.